Time;durP1;ratioP1;P1;durP2;ratioP2;P2;SDS_P1;SDS_P2;PMS_P1;PMS_P2;Temp;Humidity;BMP_temperature;BMP_pressure;BME280_temperature;BME280_humidity;BME280_pressure;Samples;Min_cycle;Max_cycle;Signal;HPM_P1;HPM_P2
2023/10/30 00:00:19;;;;;;;10.30;4.80;;;;;;;11.96;100.00;100959.98;106256;1260;72679;-86
2023/10/30 00:02:47;;;;;;;12.30;5.20;;;;;;;11.99;100.00;100959.48;106248;1260;60497;-89
2023/10/30 00:05:16;;;;;;;12.70;5.30;;;;;;;12.03;100.00;100959.68;106230;1259;60488;-87
2023/10/30 00:07:44;;;;;;;13.20;4.90;;;;;;;12.07;100.00;100955.77;106167;1259;72857;-81
2023/10/30 00:10:12;;;;;;;9.90;4.80;;;;;;;12.10;100.00;100951.39;106232;1258;67105;-81
2023/10/30 00:12:40;;;;;;;9.00;4.40;;;;;;;12.02;100.00;100948.50;106238;1260;70917;-81
2023/10/30 00:15:08;;;;;;;11.40;4.70;;;;;;;11.96;100.00;100946.11;106408;1254;60435;-80
2023/10/30 00:17:36;;;;;;;13.70;4.50;;;;;;;11.93;100.00;100944.25;106096;1254;60373;-87
2023/10/30 00:20:05;;;;;;;7.30;4.60;;;;;;;11.95;100.00;100946.33;106494;1253;72823;-82
2023/10/30 00:22:33;;;;;;;12.20;3.70;;;;;;;12.01;100.00;100948.29;106346;1258;67219;-80
2023/10/30 00:25:02;;;;;;;8.20;4.60;;;;;;;12.08;100.00;100948.21;106122;1259;71460;-87
2023/10/30 00:27:30;;;;;;;9.60;4.50;;;;;;;12.12;100.00;100949.59;106313;1258;60505;-81
2023/10/30 00:29:58;;;;;;;8.50;3.90;;;;;;;12.16;100.00;100957.52;106279;1255;60545;-80
2023/10/30 00:32:25;;;;;;;7.10;3.50;;;;;;;12.15;100.00;100954.67;106202;1253;73901;-87
2023/10/30 00:34:53;;;;;;;7.90;4.00;;;;;;;12.06;100.00;100955.89;106398;1259;69186;-87
2023/10/30 00:37:22;;;;;;;10.00;4.30;;;;;;;11.98;100.00;100957.17;106200;1259;72484;-81
2023/10/30 00:39:50;;;;;;;8.40;4.10;;;;;;;11.93;100.00;100951.96;106229;1260;60407;-87
2023/10/30 00:42:18;;;;;;;9.30;4.00;;;;;;;11.91;100.00;100955.59;106291;1255;60495;-88
2023/10/30 00:44:46;;;;;;;7.70;3.70;;;;;;;11.97;100.00;100953.72;106403;1258;73823;-88
2023/10/30 00:47:14;;;;;;;7.30;4.30;;;;;;;11.95;100.00;100948.58;106417;1254;68297;-88
2023/10/30 00:49:42;;;;;;;8.40;4.00;;;;;;;11.88;100.00;100940.41;106272;1257;72683;-82
2023/10/30 00:52:09;;;;;;;10.40;4.10;;;;;;;11.83;100.00;100937.73;106309;1256;60348;-81
2023/10/30 00:54:37;;;;;;;10.20;4.10;;;;;;;11.82;100.00;100935.90;106319;1258;60626;-81
2023/10/30 00:57:05;;;;;;;11.70;4.00;;;;;;;11.83;100.00;100933.99;106122;1259;73793;-81
2023/10/30 00:59:32;;;;;;;8.60;4.20;;;;;;;11.83;100.00;100932.52;106301;1259;68890;-81
2023/10/30 01:02:00;;;;;;;9.20;3.80;;;;;;;11.86;100.00;100934.38;106320;1259;72706;-88
2023/10/30 07:10:23;;;;;;;5.80;2.70;;;;;;;17.66;83.46;100862.19;105698;1262;68431;-93
2023/10/30 07:12:57;;;;;;;4.90;2.20;;;;;;;17.85;82.31;100859.13;105846;1262;72789;-92
2023/10/30 07:15:31;;;;;;;3.00;2.00;;;;;;;18.03;80.11;100861.61;105934;1263;62029;-90
2023/10/30 07:17:59;;;;;;;7.70;2.70;;;;;;;18.10;79.22;100866.12;105706;1266;60410;-85
2023/10/30 07:20:27;;;;;;;5.10;2.30;;;;;;;18.14;78.99;100857.62;105828;1266;74161;-85
2023/10/30 07:22:55;;;;;;;4.20;2.60;;;;;;;18.25;78.06;100854.22;105680;1262;70752;-85
2023/10/30 07:25:27;;;;;;;5.80;2.70;;;;;;;18.47;75.36;100851.65;105920;1264;71448;-90
2023/10/30 07:27:55;;;;;;;4.10;2.10;;;;;;;18.56;74.73;100847.88;105754;1264;60554;-92
2023/10/30 07:30:29;;;;;;;4.10;2.40;;;;;;;18.66;73.98;100850.17;106275;1264;60466;-85
2023/10/30 07:33:04;;;;;;;6.00;2.20;;;;;;;18.79;71.14;100851.34;105625;1264;74191;-85
2023/10/30 07:35:36;;;;;;;7.30;2.60;;;;;;;18.93;70.83;100851.32;105751;1264;68402;-86
2023/10/30 07:38:11;;;;;;;5.60;2.00;;;;;;;19.04;69.56;100853.23;105547;1264;72845;-85
2023/10/30 07:40:38;;;;;;;4.50;2.30;;;;;;;19.07;69.51;100848.98;105959;1262;60580;-86
2023/10/30 07:43:06;;;;;;;8.40;2.70;;;;;;;19.17;68.21;100842.34;105806;1261;60407;-85
2023/10/30 07:45:41;;;;;;;6.10;2.40;;;;;;;19.28;67.91;100842.68;105789;1263;73813;-85
2023/10/30 07:48:17;;;;;;;5.30;2.00;;;;;;;19.38;67.76;100843.02;105804;1264;68474;-86
2023/10/30 07:50:51;;;;;;;4.50;2.40;;;;;;;19.45;66.99;100838.54;106016;1262;71774;-90
2023/10/30 07:53:18;;;;;;;5.60;2.10;;;;;;;19.58;66.66;100840.33;106553;1260;60532;-90
2023/10/30 07:55:50;;;;;;;5.30;2.30;;;;;;;19.74;66.20;100838.13;108265;1262;60426;-90
2023/10/30 07:58:25;;;;;;;5.80;1.90;;;;;;;19.84;65.35;100833.52;108217;1262;72437;-91
2023/10/30 08:00:59;;;;;;;4.10;2.30;;;;;;;19.99;64.21;100832.09;107790;1262;67450;-92
2023/10/30 08:03:27;;;;;;;6.40;2.50;;;;;;;20.09;63.83;100831.48;105699;1264;71542;-92
2023/10/30 08:06:01;;;;;;;5.40;2.40;;;;;;;20.13;63.19;100830.38;106014;1266;60513;-90
2023/10/30 08:08:30;;;;;;;5.10;1.80;;;;;;;20.17;62.70;100832.27;105986;1265;60695;-92
2023/10/30 08:11:04;;;;;;;4.40;1.90;;;;;;;20.22;62.82;100838.77;106595;1265;72584;-91
2023/10/30 08:13:41;;;;;;;4.40;2.50;;;;;;;20.26;62.30;100836.20;105862;1260;68411;-90
2023/10/30 08:16:10;;;;;;;5.50;2.50;;;;;;;20.35;63.37;100835.20;105786;1260;71788;-90
2023/10/30 08:18:38;;;;;;;4.00;2.00;;;;;;;20.50;63.27;100836.36;105736;1261;60340;-90
2023/10/30 08:21:09;;;;;;;4.60;2.20;;;;;;;20.66;63.36;100841.26;106651;1260;60477;-91
2023/10/30 08:23:37;;;;;;;4.80;2.00;;;;;;;20.79;63.10;100840.57;105930;1261;74344;-90
2023/10/30 08:26:05;;;;;;;4.90;2.30;;;;;;;20.93;63.12;100844.02;105997;1265;68325;-90
2023/10/30 08:28:34;;;;;;;3.80;2.00;;;;;;;21.07;61.60;100843.17;105808;1261;72544;-85
2023/10/30 08:31:05;;;;;;;6.30;2.40;;;;;;;21.18;60.89;100841.05;105845;1264;60559;-88
2023/10/30 08:33:34;;;;;;;4.20;2.00;;;;;;;21.30;60.87;100838.94;106490;1261;60483;-90
2023/10/30 08:36:03;;;;;;;4.30;2.30;;;;;;;21.40;59.15;100842.02;106010;1261;73976;-86
2023/10/30 08:38:32;;;;;;;7.20;2.90;;;;;;;21.46;58.19;100838.34;106123;1260;67341;-90
2023/10/30 08:41:00;;;;;;;5.90;2.10;;;;;;;21.54;58.27;100836.31;106018;1261;72533;-91
2023/10/30 08:43:34;;;;;;;4.40;1.90;;;;;;;21.67;58.16;100837.64;105843;1260;60552;-91
2023/10/30 08:46:05;;;;;;;6.40;2.00;;;;;;;21.78;58.04;100837.45;106178;1261;60145;-91
2023/10/30 08:48:33;;;;;;;5.80;2.60;;;;;;;21.89;57.47;100835.27;105938;1262;73117;-91
2023/10/30 08:51:14;;;;;;;5.60;2.40;;;;;;;22.05;56.87;100834.42;105999;1261;68852;-90
2023/10/30 08:53:56;;;;;;;5.40;2.30;;;;;;;22.14;56.19;100830.20;105907;1261;72774;-90
2023/10/30 08:56:30;;;;;;;3.70;2.10;;;;;;;22.26;56.64;100826.09;105801;1261;60478;-91
2023/10/30 08:58:58;;;;;;;5.10;2.30;;;;;;;22.32;56.90;100824.92;106695;1260;60497;-91
2023/10/30 09:01:32;;;;;;;5.20;2.10;;;;;;;22.41;57.51;100820.58;105750;1261;73817;-91
2023/10/30 09:04:01;;;;;;;5.80;2.20;;;;;;;22.55;56.62;100818.52;105896;1260;68491;-92
2023/10/30 09:06:43;;;;;;;4.30;1.80;;;;;;;22.67;55.44;100818.96;105804;1262;71471;-91
2023/10/30 09:09:11;;;;;;;4.20;1.90;;;;;;;22.79;54.69;100803.63;105924;1261;60181;-90
2023/10/30 09:11:52;;;;;;;3.60;1.80;;;;;;;22.91;54.32;100803.90;106498;1260;60531;-91
2023/10/30 09:14:26;;;;;;;4.90;2.30;;;;;;;22.99;54.22;100799.63;105927;1264;73922;-90
2023/10/30 09:17:00;;;;;;;8.00;1.90;;;;;;;23.08;53.59;100797.79;105754;1260;70638;-91
2023/10/30 09:19:48;;;;;;;4.50;1.80;;;;;;;23.18;53.11;100793.77;103821;1287;601068;-88
2023/10/30 09:22:22;;;;;;;5.70;2.10;;;;;;;23.21;52.65;100785.88;106502;1269;59246;-87
2023/10/30 09:24:49;;;;;;;7.50;2.30;;;;;;;23.25;52.90;100781.13;105481;1269;59384;-87
2023/10/30 09:27:24;;;;;;;5.70;2.40;;;;;;;23.25;52.58;100781.84;105405;1269;70708;-87
2023/10/30 09:29:51;;;;;;;4.10;1.90;;;;;;;23.32;52.13;100778.30;105468;1272;67763;-87
2023/10/30 09:32:23;;;;;;;6.50;2.20;;;;;;;23.38;52.25;100776.92;105846;1267;663042;-87
2023/10/30 09:34:51;;;;;;;5.20;2.60;;;;;;;23.47;52.54;100775.88;106238;1266;61070;-86
2023/10/30 09:37:19;;;;;;;6.40;2.30;;;;;;;23.62;52.42;100767.73;105635;1266;59386;-87
2023/10/30 09:39:47;;;;;;;3.80;1.90;;;;;;;23.72;51.33;100767.74;105638;1266;72355;-87
2023/10/30 09:42:17;;;;;;;4.40;1.80;;;;;;;23.75;50.54;100760.67;105665;1271;69128;-87
2023/10/30 09:44:45;;;;;;;3.20;1.50;;;;;;;23.75;49.98;100759.73;105999;1266;71404;-84
2023/10/30 09:47:13;;;;;;;4.50;1.90;;;;;;;23.74;50.49;100760.43;105715;1266;60416;-85
2023/10/30 09:49:47;;;;;;;5.10;1.80;;;;;;;23.75;50.18;100757.18;105523;1266;59529;-85
2023/10/30 09:52:15;;;;;;;6.10;1.90;;;;;;;23.77;50.17;100759.14;106435;1265;73326;-86
2023/10/30 09:54:48;;;;;;;4.20;2.20;;;;;;;23.78;50.31;100761.00;105800;1266;69794;-85
2023/10/30 09:57:17;;;;;;;2.90;1.50;;;;;;;23.81;49.92;100756.44;105621;1270;75051;-86
2023/10/30 09:59:52;;;;;;;4.40;1.40;;;;;;;23.82;50.04;100751.12;105791;1266;59691;-85
2023/10/30 10:02:26;;;;;;;2.10;1.50;;;;;;;23.81;49.71;100754.92;105936;1270;60081;-86
2023/10/30 10:04:57;;;;;;;5.70;2.00;;;;;;;23.82;49.07;100748.89;106905;1267;73151;-85
2023/10/30 10:07:27;;;;;;;4.40;1.80;;;;;;;23.84;48.76;100751.97;105507;1269;67631;-89
2023/10/30 10:10:06;;;;;;;4.00;1.60;;;;;;;23.88;47.62;100752.61;105780;1269;71530;-89
2023/10/30 10:12:40;;;;;;;7.30;1.90;;;;;;;23.84;47.58;100756.83;105890;1264;62134;-85
2023/10/30 10:15:12;;;;;;;4.00;1.30;;;;;;;23.79;47.81;100760.77;106506;1260;62112;-86
2023/10/30 10:17:46;;;;;;;;;;;;;;;23.75;48.10;100762.35;105787;1262;74626;-86
2023/10/30 10:20:21;;;;;;;4.10;1.70;;;;;;;23.72;48.54;100755.34;105819;1260;67816;-86
2023/10/30 10:22:56;;;;;;;4.70;1.90;;;;;;;23.65;48.85;100749.15;105815;1263;73818;-88
2023/10/30 10:25:25;;;;;;;4.00;1.70;;;;;;;23.61;49.16;100749.48;106642;1266;60180;-87
2023/10/30 10:27:54;;;;;;;6.80;1.80;;;;;;;23.58;49.62;100751.88;105987;1266;60131;-86
2023/10/30 10:30:32;;;;;;;4.00;1.30;;;;;;;23.58;49.43;100752.19;105808;1262;72283;-85
2023/10/30 10:33:07;;;;;;;3.00;1.50;;;;;;;23.59;49.44;100747.83;105985;1266;68517;-87
2023/10/30 10:35:40;;;;;;;6.20;1.80;;;;;;;23.59;49.33;100748.63;106513;1264;71506;-87
2023/10/30 10:38:09;;;;;;;4.70;1.70;;;;;;;23.55;48.66;100746.55;105919;1263;60238;-87
2023/10/30 10:40:43;;;;;;;2.90;1.60;;;;;;;23.65;48.52;100749.73;105858;1260;60373;-86
2023/10/30 10:43:18;;;;;;;4.80;1.80;;;;;;;23.51;49.54;100747.86;105990;1262;73099;-88
2023/10/30 10:45:48;;;;;;;4.30;2.30;;;;;;;23.34;50.76;100744.27;106223;1266;68726;-88
2023/10/30 10:48:24;;;;;;;5.60;1.80;;;;;;;23.29;51.26;100742.54;106050;1262;71214;-86
2023/10/30 10:50:54;;;;;;;5.20;1.80;;;;;;;23.28;51.12;100740.74;106187;1264;60195;-85
2023/10/30 10:53:28;;;;;;;7.00;2.30;;;;;;;23.27;50.55;100749.09;106041;1262;59633;-86
2023/10/30 10:56:04;;;;;;;4.20;1.70;;;;;;;23.32;50.57;100743.48;105680;1262;73055;-86
2023/10/30 10:58:47;;;;;;;4.00;1.50;;;;;;;23.34;50.81;100745.93;106474;1263;68111;-86
2023/10/30 11:01:21;;;;;;;4.20;1.70;;;;;;;23.32;51.25;100747.92;105684;1263;72414;-86
2023/10/30 11:03:51;;;;;;;5.20;2.10;;;;;;;23.29;51.02;100746.27;105978;1266;62296;-86
2023/10/30 11:06:21;;;;;;;2.70;1.60;;;;;;;23.28;50.57;100743.84;105844;1262;59555;-87
2023/10/30 11:09:01;;;;;;;4.40;1.80;;;;;;;23.24;50.66;100745.73;106379;1262;71947;-88
2023/10/30 11:11:52;;;;;;;4.10;1.90;;;;;;;23.14;50.51;100743.66;105903;1266;68566;-86
2023/10/30 11:14:41;;;;;;;3.80;2.10;;;;;;;23.09;50.68;100743.92;105635;1266;72668;-86
2023/10/30 11:17:28;;;;;;;6.80;2.00;;;;;;;23.07;50.38;100742.27;105813;1263;59706;-86
2023/10/30 11:20:16;;;;;;;5.00;1.70;;;;;;;23.02;50.34;100742.07;106178;1263;60509;-87
2023/10/30 11:22:55;;;;;;;4.60;1.80;;;;;;;22.96;49.23;100738.92;105756;1263;73025;-85
2023/10/30 11:25:50;;;;;;;4.80;1.70;;;;;;;22.88;48.99;100743.48;105759;1263;67565;-86
2023/10/30 11:28:35;;;;;;;4.40;2.00;;;;;;;22.82;48.39;100742.41;106361;1263;72652;-87
2023/10/30 11:31:15;;;;;;;3.10;1.80;;;;;;;22.80;48.21;100742.87;105668;1269;59643;-87
2023/10/30 11:34:21;;;;;;;4.40;1.60;;;;;;;22.79;48.44;100736.46;105795;1261;59689;-85
2023/10/30 11:37:09;;;;;;;3.50;1.50;;;;;;;22.81;49.25;100733.15;105738;1262;73562;-87
2023/10/30 11:39:50;;;;;;;3.60;1.60;;;;;;;22.92;48.51;100728.45;106647;1262;67962;-87
2023/10/30 11:42:32;;;;;;;3.40;1.60;;;;;;;22.93;48.09;100725.33;105581;1263;72777;-87
2023/10/30 11:45:22;;;;;;;3.10;1.40;;;;;;;22.90;47.67;100727.84;105773;1266;59750;-87
2023/10/30 11:48:11;;;;;;;5.30;1.70;;;;;;;22.84;48.15;100723.92;106041;1262;59652;-88
2023/10/30 11:50:51;;;;;;;4.10;1.60;;;;;;;22.81;48.36;100721.88;105866;1266;73071;-86
2023/10/30 11:53:31;;;;;;;3.80;1.50;;;;;;;22.90;48.38;100715.25;106092;1262;68981;-86
2023/10/30 11:56:16;;;;;;;5.60;1.50;;;;;;;22.98;48.44;100705.23;105916;1256;73273;-87
2023/10/30 11:58:56;;;;;;;4.10;1.80;;;;;;;23.04;48.54;100704.75;106422;1262;61348;-87
2023/10/30 12:01:39;;;;;;;4.20;1.60;;;;;;;23.08;48.71;100703.45;106202;1257;60758;-88
2023/10/30 12:04:26;;;;;;;6.00;2.10;;;;;;;23.06;48.66;100701.02;106090;1260;73233;-88
2023/10/30 12:07:06;;;;;;;4.20;1.70;;;;;;;23.06;48.23;100700.77;106092;1257;68576;-86
2023/10/30 12:09:46;;;;;;;4.50;1.60;;;;;;;23.03;47.90;100698.36;107016;1260;71129;-87
2023/10/30 12:12:27;;;;;;;2.60;1.50;;;;;;;22.97;47.76;100691.83;105975;1257;60568;-86
2023/10/30 12:15:07;;;;;;;4.70;1.80;;;;;;;22.91;48.16;100692.36;106119;1264;59651;-87
2023/10/30 12:17:47;;;;;;;5.30;1.90;;;;;;;22.84;48.40;100690.02;106151;1258;73170;-87
2023/10/30 12:20:27;;;;;;;4.80;1.80;;;;;;;22.82;48.61;100687.61;106452;1257;69158;-89
2023/10/30 12:23:06;;;;;;;5.30;1.80;;;;;;;22.82;48.95;100686.56;105946;1257;72627;-87
2023/10/30 12:25:50;;;;;;;5.00;1.70;;;;;;;22.81;49.14;100687.48;106060;1259;60527;-86
2023/10/30 12:28:40;;;;;;;4.20;2.00;;;;;;;22.82;49.24;100689.26;106014;1257;60098;-87
2023/10/30 12:31:27;;;;;;;5.30;1.70;;;;;;;22.81;49.85;100691.37;106801;1262;74320;-88
2023/10/30 12:34:22;;;;;;;3.70;2.00;;;;;;;22.80;50.54;100685.70;105916;1257;68582;-88
2023/10/30 12:37:02;;;;;;;3.10;1.80;;;;;;;22.76;50.68;100686.08;106097;1260;71075;-88
2023/10/30 12:39:42;;;;;;;4.20;2.00;;;;;;;22.75;50.97;100683.02;105816;1263;59726;-86
2023/10/30 12:42:23;;;;;;;4.10;1.60;;;;;;;22.74;51.07;100683.40;106346;1257;59561;-87
2023/10/30 12:45:12;;;;;;;5.10;1.70;;;;;;;22.79;50.88;100681.21;106101;1257;72276;-87
2023/10/30 12:47:56;;;;;;;3.80;1.90;;;;;;;22.72;51.18;100685.73;106258;1259;68137;-87
2023/10/30 12:50:37;;;;;;;5.60;1.90;;;;;;;22.67;51.20;100680.67;106410;1254;72692;-87
2023/10/30 12:53:17;;;;;;;5.20;1.60;;;;;;;22.64;51.27;100676.75;106982;1259;59624;-88
2023/10/30 12:55:57;;;;;;;4.10;1.40;;;;;;;22.68;50.89;100673.14;106350;1256;60080;-88
2023/10/30 12:58:37;;;;;;;4.10;1.90;;;;;;;22.65;50.80;100673.29;106321;1259;73039;-86
2023/10/30 13:01:17;;;;;;;4.70;1.60;;;;;;;22.58;51.27;100669.05;106268;1253;67653;-87
2023/10/30 13:03:57;;;;;;;3.80;1.70;;;;;;;22.53;51.87;100667.38;107162;1257;72864;-87
2023/10/30 13:06:37;;;;;;;4.90;2.10;;;;;;;22.49;52.16;100665.35;106325;1254;59851;-87
2023/10/30 13:09:11;;;;;;;5.70;2.30;;;;;;;22.36;52.59;100669.60;106275;1254;60385;-87
2023/10/30 13:11:45;;;;;;;5.20;1.60;;;;;;;22.25;53.11;100669.61;106373;1254;73188;-86
2023/10/30 13:14:25;;;;;;;2.90;1.40;;;;;;;22.15;53.55;100666.41;106798;1253;67306;-88
2023/10/30 13:17:05;;;;;;;7.60;1.90;;;;;;;22.11;53.91;100664.88;106278;1254;72674;-88
2023/10/30 13:19:39;;;;;;;4.40;1.80;;;;;;;22.08;54.23;100665.13;106252;1254;60174;-87
2023/10/30 13:22:13;;;;;;;2.50;1.60;;;;;;;22.06;54.55;100663.40;106374;1257;60126;-88
2023/10/30 13:24:53;;;;;;;5.50;1.70;;;;;;;22.05;54.76;100658.34;106455;1253;74073;-88
2023/10/30 13:27:33;;;;;;;2.60;1.70;;;;;;;22.02;54.99;100658.17;106260;1257;67838;-87
2023/10/30 13:30:08;;;;;;;3.70;1.40;;;;;;;21.97;55.82;100662.69;106313;1259;71450;-87
2023/10/30 13:32:42;;;;;;;5.40;1.70;;;;;;;21.93;56.30;100660.45;106295;1254;60496;-88
2023/10/30 13:35:22;;;;;;;3.40;1.70;;;;;;;21.91;56.51;100660.70;107122;1254;59259;-87
2023/10/30 13:38:02;;;;;;;5.00;1.70;;;;;;;21.87;57.11;100656.61;106495;1255;72181;-87
2023/10/30 13:40:38;;;;;;;5.80;2.00;;;;;;;21.83;57.47;100654.67;106329;1253;67727;-88
2023/10/30 13:43:12;;;;;;;17.80;2.30;;;;;;;21.79;57.65;100646.83;106310;1253;73041;-86
2023/10/30 13:45:52;;;;;;;3.90;1.80;;;;;;;21.76;57.82;100647.20;106423;1256;60498;-88
2023/10/30 13:48:33;;;;;;;6.70;2.20;;;;;;;21.68;58.75;100648.33;106331;1256;60526;-87
2023/10/30 13:51:07;;;;;;;5.10;2.20;;;;;;;21.60;59.40;100640.60;106281;1256;73942;-87
2023/10/30 13:53:41;;;;;;;4.90;1.70;;;;;;;21.48;60.22;100638.63;106265;1256;68743;-86
2023/10/30 13:56:27;;;;;;;4.20;2.00;;;;;;;21.44;60.53;100636.77;106228;1255;72544;-84
2023/10/30 13:59:07;;;;;;;5.50;2.00;;;;;;;21.36;61.65;100633.22;106588;1256;61007;-86
2023/10/30 14:01:42;;;;;;;5.80;2.00;;;;;;;21.33;62.19;100638.46;106509;1254;59731;-88
2023/10/30 14:04:16;;;;;;;4.50;2.10;;;;;;;21.28;62.29;100630.52;106302;1254;73916;-86
2023/10/30 14:06:58;;;;;;;5.00;2.00;;;;;;;21.20;62.97;100637.80;106270;1259;67201;-87
2023/10/30 14:09:38;;;;;;;3.90;2.20;;;;;;;21.12;63.57;100640.39;107429;1253;71500;-86
2023/10/30 14:12:12;;;;;;;4.50;1.90;;;;;;;21.05;64.41;100638.98;106511;1256;60572;-84
2023/10/30 14:14:46;;;;;;;7.80;2.60;;;;;;;20.97;65.34;100636.81;106586;1257;60409;-86
2023/10/30 14:17:26;;;;;;;16.50;5.80;;;;;;;20.88;66.46;100634.97;106455;1254;72839;-86
2023/10/30 14:20:06;;;;;;;13.50;6.60;;;;;;;20.80;67.18;100642.32;106417;1259;67695;-85
2023/10/30 14:22:41;;;;;;;10.40;5.50;;;;;;;20.78;67.43;100641.39;106638;1253;72771;-86
2023/10/30 14:25:15;;;;;;;13.80;7.30;;;;;;;20.74;67.54;100637.61;106438;1254;60428;-84
2023/10/30 14:27:56;;;;;;;23.00;12.80;;;;;;;20.65;68.19;100638.54;106404;1259;60366;-87
2023/10/30 14:30:36;;;;;;;21.90;10.90;;;;;;;20.54;69.73;100638.40;106403;1259;75810;-85
2023/10/30 14:33:11;;;;;;;18.60;8.70;;;;;;;20.44;70.84;100638.18;106885;1259;68048;-86
2023/10/30 14:35:45;;;;;;;19.10;8.80;;;;;;;20.37;72.18;100638.80;106393;1257;71825;-85
2023/10/30 14:38:24;;;;;;;16.70;8.50;;;;;;;20.31;72.64;100638.56;106315;1256;60540;-87
2023/10/30 14:41:05;;;;;;;14.20;7.10;;;;;;;20.25;72.79;100636.30;106413;1259;60510;-87
2023/10/30 14:43:40;;;;;;;13.90;7.10;;;;;;;20.17;73.26;100634.11;107259;1260;76057;-87
2023/10/30 14:46:15;;;;;;;17.50;8.10;;;;;;;20.13;73.66;100632.75;106385;1254;69001;-85
2023/10/30 14:48:55;;;;;;;12.10;5.70;;;;;;;20.09;73.85;100634.69;106403;1255;72984;-86
2023/10/30 14:51:36;;;;;;;14.60;6.80;;;;;;;20.01;74.61;100636.28;106263;1259;60341;-87
2023/10/30 14:54:17;;;;;;;12.80;5.30;;;;;;;19.90;75.86;100634.51;106976;1259;60529;-86
2023/10/30 14:56:48;;;;;;;10.20;4.70;;;;;;;19.76;76.83;100639.86;106415;1254;74207;-86
2023/10/30 14:59:28;;;;;;;11.40;5.10;;;;;;;19.61;78.21;100637.96;106306;1254;69356;-87
2023/10/30 15:02:08;;;;;;;10.60;4.30;;;;;;;19.48;79.28;100640.37;106445;1254;72855;-87
2023/10/30 15:04:46;;;;;;;12.80;5.10;;;;;;;19.40;80.20;100636.17;107203;1257;60418;-87
2023/10/30 15:07:14;;;;;;;10.00;4.20;;;;;;;19.39;80.47;100645.64;106467;1262;60461;-86
2023/10/30 15:09:48;;;;;;;7.80;4.70;;;;;;;19.33;81.11;100645.10;106523;1254;73906;-86
2023/10/30 15:12:29;;;;;;;9.80;3.60;;;;;;;19.23;82.23;100641.37;106352;1253;68681;-87
2023/10/30 15:15:05;;;;;;;8.60;4.20;;;;;;;19.16;82.45;100641.30;106853;1253;72621;-89
2023/10/30 15:17:35;;;;;;;9.10;3.90;;;;;;;19.05;83.24;100643.54;106929;1257;60459;-89
2023/10/30 15:20:10;;;;;;;9.70;4.00;;;;;;;18.97;84.29;100645.58;106244;1259;59328;-86
2023/10/30 15:22:40;;;;;;;8.20;3.30;;;;;;;18.90;84.99;100644.17;106245;1254;72642;-87
2023/10/30 15:25:14;;;;;;;9.20;4.70;;;;;;;18.83;85.76;100645.63;106571;1253;68930;-87
2023/10/30 15:27:42;;;;;;;8.90;4.30;;;;;;;18.77;86.61;100645.45;106708;1259;71240;-87
2023/10/30 15:30:10;;;;;;;12.50;4.40;;;;;;;18.69;88.05;100648.56;106382;1254;60664;-87
2023/10/30 15:32:44;;;;;;;9.90;3.50;;;;;;;18.64;88.94;100648.73;106319;1258;60436;-87
2023/10/30 15:35:13;;;;;;;12.10;5.70;;;;;;;18.60;90.19;100653.53;106288;1256;76062;-87
2023/10/30 15:37:42;;;;;;;17.10;6.70;;;;;;;18.57;91.16;100652.30;107256;1258;68559;-87
2023/10/30 15:40:10;;;;;;;18.10;8.20;;;;;;;18.57;91.48;100652.54;106565;1256;71454;-87
2023/10/30 15:42:38;;;;;;;16.10;7.70;;;;;;;18.53;92.13;100654.56;106371;1257;60572;-88
2023/10/30 15:45:06;;;;;;;13.70;6.00;;;;;;;18.50;92.69;100652.06;106499;1253;60358;-86
2023/10/30 15:47:34;;;;;;;15.10;5.90;;;;;;;18.49;93.42;100653.59;107194;1254;73944;-87
2023/10/30 15:50:09;;;;;;;17.00;5.40;;;;;;;18.46;93.59;100656.17;106402;1254;70925;-86
2023/10/30 15:52:38;;;;;;;10.80;5.20;;;;;;;18.43;94.22;100653.44;106393;1253;72943;-87
2023/10/30 15:55:11;;;;;;;16.60;6.00;;;;;;;18.40;94.98;100660.23;106362;1254;60618;-88
2023/10/30 15:57:44;;;;;;;13.60;6.90;;;;;;;18.36;95.81;100656.92;106368;1255;60482;-87
2023/10/30 16:00:18;;;;;;;16.40;6.90;;;;;;;18.35;96.28;100655.30;107103;1254;74618;-87
2023/10/30 16:02:46;;;;;;;17.40;8.50;;;;;;;18.32;96.64;100655.30;106385;1254;67710;-87
2023/10/30 16:05:22;;;;;;;14.20;7.30;;;;;;;18.27;97.44;100661.56;106318;1254;73048;-87
2023/10/30 16:07:51;;;;;;;17.10;6.80;;;;;;;18.24;97.61;100667.67;106364;1255;60559;-88
2023/10/30 16:10:20;;;;;;;14.00;5.80;;;;;;;18.23;97.57;100671.87;107156;1254;60437;-88
2023/10/30 16:12:51;;;;;;;;;;;;;;;18.19;97.32;100673.42;106486;1254;72633;-87
2023/10/30 16:15:23;;;;;;;18.70;7.10;;;;;;;18.14;97.54;100667.27;106294;1260;70594;-87
2023/10/30 16:17:55;;;;;;;26.20;9.50;;;;;;;18.05;98.40;100670.59;106234;1260;72797;-87
2023/10/30 16:20:32;;;;;;;23.80;10.00;;;;;;;17.96;99.36;100678.00;106580;1259;60384;-87
2023/10/30 16:23:01;;;;;;;21.40;8.10;;;;;;;17.90;99.98;100676.14;107247;1258;60376;-88
2023/10/30 16:25:36;;;;;;;20.40;8.00;;;;;;;17.89;99.98;100679.54;106398;1256;72657;-88
2023/10/30 16:28:10;;;;;;;18.40;8.30;;;;;;;17.77;100.00;100680.32;106386;1255;68825;-87
2023/10/30 16:30:38;;;;;;;24.70;10.20;;;;;;;17.70;100.00;100679.48;106375;1260;72757;-88
2023/10/30 16:33:06;;;;;;;24.60;10.90;;;;;;;17.62;100.00;100681.36;107495;1259;60416;-87
2023/10/30 16:35:34;;;;;;;21.90;9.50;;;;;;;17.55;100.00;100683.52;106375;1253;60312;-87
2023/10/30 16:38:02;;;;;;;20.70;8.90;;;;;;;17.51;100.00;100683.96;106459;1259;73912;-88
2023/10/30 16:40:30;;;;;;;19.00;8.10;;;;;;;17.41;100.00;100682.20;106508;1254;68802;-88
2023/10/30 16:43:00;;;;;;;17.40;8.30;;;;;;;17.34;100.00;100678.86;106973;1257;71234;-89
2023/10/30 16:45:35;;;;;;;16.80;7.90;;;;;;;17.25;100.00;100676.07;106419;1260;60530;-88
2023/10/30 16:48:03;;;;;;;17.30;6.10;;;;;;;17.14;100.00;100679.08;106358;1254;62263;-88
2023/10/30 16:50:31;;;;;;;17.10;7.00;;;;;;;17.05;100.00;100683.68;106427;1258;72628;-87
2023/10/30 16:52:59;;;;;;;16.10;6.50;;;;;;;16.96;100.00;100678.90;106249;1253;69556;-88
2023/10/30 16:55:27;;;;;;;19.70;7.60;;;;;;;16.85;100.00;100686.65;107081;1258;71875;-88
2023/10/30 16:58:03;;;;;;;14.70;5.60;;;;;;;16.72;100.00;100682.63;106546;1259;60332;-88
2023/10/30 17:00:31;;;;;;;16.90;6.10;;;;;;;16.62;100.00;100683.39;106291;1260;61122;-88
2023/10/30 17:03:07;;;;;;;17.20;7.10;;;;;;;16.56;100.00;100682.77;106450;1254;74083;-88
2023/10/30 17:05:36;;;;;;;15.70;6.80;;;;;;;16.50;100.00;100685.55;106704;1254;67237;-88
2023/10/30 17:08:04;;;;;;;15.10;5.90;;;;;;;16.45;100.00;100694.44;106302;1254;73219;-88
2023/10/30 17:10:38;;;;;;;12.30;4.80;;;;;;;16.43;100.00;100697.57;106205;1260;60552;-88
2023/10/30 17:13:12;;;;;;;12.20;4.60;;;;;;;16.42;100.00;100700.22;106338;1258;60966;-87
2023/10/30 17:15:41;;;;;;;12.50;4.40;;;;;;;16.37;100.00;100705.24;107170;1259;74240;-86
2023/10/30 17:18:09;;;;;;;9.20;4.00;;;;;;;16.30;100.00;100697.77;106459;1260;67684;-87
2023/10/30 17:20:39;;;;;;;11.40;4.40;;;;;;;16.24;100.00;100691.52;106304;1258;71419;-87
2023/10/30 17:23:14;;;;;;;19.10;5.90;;;;;;;16.18;100.00;100687.02;106252;1260;60552;-87
2023/10/30 17:25:43;;;;;;;21.80;9.40;;;;;;;16.12;100.00;100683.74;107354;1254;60489;-87
2023/10/30 17:28:11;;;;;;;31.60;12.20;;;;;;;16.11;100.00;100683.45;106376;1257;73989;-87
2023/10/30 17:30:45;;;;;;;35.10;12.40;;;;;;;16.09;100.00;100682.98;106534;1254;71355;-86
2023/10/30 17:33:20;;;;;;;24.40;11.90;;;;;;;16.09;100.00;100678.96;106393;1254;71659;-86
2023/10/30 17:35:49;;;;;;;26.70;10.60;;;;;;;16.06;100.00;100679.20;106922;1256;60926;-87
2023/10/30 17:38:20;;;;;;;;;;;;;;;16.03;100.00;100673.38;106448;1254;60491;-86
2023/10/30 17:40:48;;;;;;;22.40;8.40;;;;;;;16.02;100.00;100674.62;106422;1260;76232;-86
2023/10/30 17:43:16;;;;;;;25.30;11.00;;;;;;;16.03;100.00;100675.14;106477;1259;67508;-87
2023/10/30 17:45:44;;;;;;;25.30;9.50;;;;;;;16.05;100.00;100674.09;107119;1254;71575;-86
2023/10/30 17:48:19;;;;;;;18.10;7.50;;;;;;;16.07;100.00;100677.75;106357;1258;60508;-87
2023/10/30 17:50:53;;;;;;;19.00;7.70;;;;;;;16.10;100.00;100675.23;106593;1254;61007;-87